sensor_id;sensor_type;location;lat;lon;timestamp;P1;durP1;ratioP1;P2;durP2;ratioP2
11970;SDS011;6045;42.682;23.294;2023-12-22T00:01:55;38.50;;;19.97;;
11970;SDS011;6045;42.682;23.294;2023-12-22T00:04:23;33.43;;;17.60;;
11970;SDS011;6045;42.682;23.294;2023-12-22T00:06:50;26.33;;;15.03;;
11970;SDS011;6045;42.682;23.294;2023-12-22T00:09:17;22.37;;;13.67;;
11970;SDS011;6045;42.682;23.294;2023-12-22T00:11:44;27.93;;;15.07;;
11970;SDS011;6045;42.682;23.294;2023-12-22T00:14:11;26.60;;;13.30;;
11970;SDS011;6045;42.682;23.294;2023-12-22T00:16:38;23.17;;;12.63;;
11970;SDS011;6045;42.682;23.294;2023-12-22T00:19:05;25.30;;;12.10;;
11970;SDS011;6045;42.682;23.294;2023-12-22T00:21:33;21.10;;;11.70;;
11970;SDS011;6045;42.682;23.294;2023-12-22T00:24:00;22.20;;;11.80;;
11970;SDS011;6045;42.682;23.294;2023-12-22T00:26:27;19.80;;;11.60;;
11970;SDS011;6045;42.682;23.294;2023-12-22T00:28:54;19.97;;;12.07;;
11970;SDS011;6045;42.682;23.294;2023-12-22T00:31:21;20.63;;;11.07;;
11970;SDS011;6045;42.682;23.294;2023-12-22T00:33:48;20.43;;;11.30;;
11970;SDS011;6045;42.682;23.294;2023-12-22T00:36:15;25.30;;;11.47;;
11970;SDS011;6045;42.682;23.294;2023-12-22T00:38:44;24.70;;;12.30;;
11970;SDS011;6045;42.682;23.294;2023-12-22T00:41:11;18.10;;;10.73;;
11970;SDS011;6045;42.682;23.294;2023-12-22T00:43:38;21.63;;;11.43;;
11970;SDS011;6045;42.682;23.294;2023-12-22T00:46:05;22.23;;;13.07;;
11970;SDS011;6045;42.682;23.294;2023-12-22T00:48:32;21.80;;;10.43;;
11970;SDS011;6045;42.682;23.294;2023-12-22T00:50:59;19.33;;;10.90;;
11970;SDS011;6045;42.682;23.294;2023-12-22T00:53:26;20.57;;;10.97;;
11970;SDS011;6045;42.682;23.294;2023-12-22T00:55:54;21.67;;;12.10;;
11970;SDS011;6045;42.682;23.294;2023-12-22T00:58:21;21.03;;;10.90;;
11970;SDS011;6045;42.682;23.294;2023-12-22T01:00:48;19.07;;;10.83;;
11970;SDS011;6045;42.682;23.294;2023-12-22T01:03:15;22.97;;;12.13;;
11970;SDS011;6045;42.682;23.294;2023-12-22T01:05:42;21.43;;;12.13;;
11970;SDS011;6045;42.682;23.294;2023-12-22T01:08:09;20.23;;;10.93;;
11970;SDS011;6045;42.682;23.294;2023-12-22T01:10:36;26.03;;;12.67;;
11970;SDS011;6045;42.682;23.294;2023-12-22T01:13:04;20.80;;;11.17;;
11970;SDS011;6045;42.682;23.294;2023-12-22T01:15:31;22.97;;;13.27;;
11970;SDS011;6045;42.682;23.294;2023-12-22T01:17:58;21.60;;;12.10;;
11970;SDS011;6045;42.682;23.294;2023-12-22T01:20:25;20.70;;;11.00;;
11970;SDS011;6045;42.682;23.294;2023-12-22T01:22:52;20.57;;;10.87;;
11970;SDS011;6045;42.682;23.294;2023-12-22T01:25:19;20.97;;;10.40;;
11970;SDS011;6045;42.682;23.294;2023-12-22T01:27:45;21.60;;;10.87;;
11970;SDS011;6045;42.682;23.294;2023-12-22T01:30:15;17.43;;;10.40;;
11970;SDS011;6045;42.682;23.294;2023-12-22T01:32:42;20.80;;;12.17;;
11970;SDS011;6045;42.682;23.294;2023-12-22T01:35:09;19.03;;;11.63;;
11970;SDS011;6045;42.682;23.294;2023-12-22T01:37:36;17.70;;;11.07;;
11970;SDS011;6045;42.682;23.294;2023-12-22T01:40:04;19.93;;;10.53;;
11970;SDS011;6045;42.682;23.294;2023-12-22T01:42:32;19.17;;;10.90;;
11970;SDS011;6045;42.682;23.294;2023-12-22T01:44:58;22.53;;;11.83;;
11970;SDS011;6045;42.682;23.294;2023-12-22T01:47:27;21.10;;;10.83;;
11970;SDS011;6045;42.682;23.294;2023-12-22T01:49:54;20.87;;;10.27;;
11970;SDS011;6045;42.682;23.294;2023-12-22T01:52:21;19.30;;;10.73;;
11970;SDS011;6045;42.682;23.294;2023-12-22T01:54:49;22.10;;;10.90;;
11970;SDS011;6045;42.682;23.294;2023-12-22T01:57:16;17.87;;;9.77;;
11970;SDS011;6045;42.682;23.294;2023-12-22T01:59:45;17.30;;;9.40;;
11970;SDS011;6045;42.682;23.294;2023-12-22T02:02:13;20.03;;;10.33;;
11970;SDS011;6045;42.682;23.294;2023-12-22T02:04:41;18.63;;;10.57;;
11970;SDS011;6045;42.682;23.294;2023-12-22T02:07:09;16.80;;;9.50;;
11970;SDS011;6045;42.682;23.294;2023-12-22T02:09:36;16.53;;;9.83;;
11970;SDS011;6045;42.682;23.294;2023-12-22T02:12:03;14.47;;;9.53;;
11970;SDS011;6045;42.682;23.294;2023-12-22T02:14:31;15.73;;;9.40;;
11970;SDS011;6045;42.682;23.294;2023-12-22T02:17:01;17.80;;;10.07;;
11970;SDS011;6045;42.682;23.294;2023-12-22T02:19:39;17.60;;;9.63;;
11970;SDS011;6045;42.682;23.294;2023-12-22T02:22:10;16.83;;;10.90;;
11970;SDS011;6045;42.682;23.294;2023-12-22T02:24:39;17.67;;;9.03;;
11970;SDS011;6045;42.682;23.294;2023-12-22T02:27:10;18.90;;;10.27;;
11970;SDS011;6045;42.682;23.294;2023-12-22T02:29:48;16.93;;;9.47;;
11970;SDS011;6045;42.682;23.294;2023-12-22T02:32:21;17.83;;;10.03;;
11970;SDS011;6045;42.682;23.294;2023-12-22T02:34:51;25.10;;;10.13;;
11970;SDS011;6045;42.682;23.294;2023-12-22T02:37:19;16.77;;;9.63;;
11970;SDS011;6045;42.682;23.294;2023-12-22T02:39:50;19.93;;;9.97;;
11970;SDS011;6045;42.682;23.294;2023-12-22T02:42:17;17.33;;;8.73;;
11970;SDS011;6045;42.682;23.294;2023-12-22T02:44:48;20.10;;;9.93;;
11970;SDS011;6045;42.682;23.294;2023-12-22T02:47:15;21.37;;;10.13;;
11970;SDS011;6045;42.682;23.294;2023-12-22T02:49:42;18.13;;;9.20;;
11970;SDS011;6045;42.682;23.294;2023-12-22T02:52:09;15.80;;;9.33;;
11970;SDS011;6045;42.682;23.294;2023-12-22T02:54:36;19.37;;;10.87;;
11970;SDS011;6045;42.682;23.294;2023-12-22T02:57:06;22.53;;;9.77;;
11970;SDS011;6045;42.682;23.294;2023-12-22T02:59:33;19.70;;;9.23;;
11970;SDS011;6045;42.682;23.294;2023-12-22T03:02:00;14.30;;;8.97;;
11970;SDS011;6045;42.682;23.294;2023-12-22T03:04:27;17.77;;;9.73;;
11970;SDS011;6045;42.682;23.294;2023-12-22T03:06:54;16.73;;;8.23;;
11970;SDS011;6045;42.682;23.294;2023-12-22T03:09:21;22.63;;;9.77;;
11970;SDS011;6045;42.682;23.294;2023-12-22T03:11:48;18.93;;;9.20;;
11970;SDS011;6045;42.682;23.294;2023-12-22T03:14:18;15.57;;;9.10;;
11970;SDS011;6045;42.682;23.294;2023-12-22T03:16:45;14.40;;;9.10;;
11970;SDS011;6045;42.682;23.294;2023-12-22T03:19:12;17.83;;;10.03;;
11970;SDS011;6045;42.682;23.294;2023-12-22T03:21:39;17.83;;;10.10;;
11970;SDS011;6045;42.682;23.294;2023-12-22T03:24:06;19.27;;;10.20;;
11970;SDS011;6045;42.682;23.294;2023-12-22T03:26:33;18.53;;;10.90;;
11970;SDS011;6045;42.682;23.294;2023-12-22T03:29:00;22.73;;;11.73;;
11970;SDS011;6045;42.682;23.294;2023-12-22T03:31:28;18.90;;;10.40;;
11970;SDS011;6045;42.682;23.294;2023-12-22T03:33:55;18.73;;;10.90;;
11970;SDS011;6045;42.682;23.294;2023-12-22T03:36:22;22.17;;;11.53;;
11970;SDS011;6045;42.682;23.294;2023-12-22T03:38:49;21.17;;;11.17;;
11970;SDS011;6045;42.682;23.294;2023-12-22T03:41:15;20.83;;;11.13;;
11970;SDS011;6045;42.682;23.294;2023-12-22T03:43:42;18.50;;;12.17;;
11970;SDS011;6045;42.682;23.294;2023-12-22T03:46:09;21.03;;;11.13;;
11970;SDS011;6045;42.682;23.294;2023-12-22T03:48:37;20.03;;;10.90;;
11970;SDS011;6045;42.682;23.294;2023-12-22T03:51:04;18.50;;;10.57;;
11970;SDS011;6045;42.682;23.294;2023-12-22T03:53:31;19.83;;;10.07;;
11970;SDS011;6045;42.682;23.294;2023-12-22T03:55:58;17.77;;;10.97;;
11970;SDS011;6045;42.682;23.294;2023-12-22T03:58:25;18.37;;;9.97;;
11970;SDS011;6045;42.682;23.294;2023-12-22T04:00:52;19.43;;;10.73;;
11970;SDS011;6045;42.682;23.294;2023-12-22T04:03:19;19.67;;;10.03;;
11970;SDS011;6045;42.682;23.294;2023-12-22T04:05:48;18.77;;;10.50;;
11970;SDS011;6045;42.682;23.294;2023-12-22T04:08:15;18.53;;;10.70;;
11970;SDS011;6045;42.682;23.294;2023-12-22T04:10:42;21.07;;;9.73;;
11970;SDS011;6045;42.682;23.294;2023-12-22T04:13:09;16.13;;;9.53;;
11970;SDS011;6045;42.682;23.294;2023-12-22T04:15:36;18.13;;;10.20;;
11970;SDS011;6045;42.682;23.294;2023-12-22T04:18:03;18.37;;;9.70;;
11970;SDS011;6045;42.682;23.294;2023-12-22T04:20:31;17.83;;;9.97;;
11970;SDS011;6045;42.682;23.294;2023-12-22T04:22:59;15.73;;;9.83;;
11970;SDS011;6045;42.682;23.294;2023-12-22T04:25:26;19.57;;;10.63;;
11970;SDS011;6045;42.682;23.294;2023-12-22T04:27:53;20.30;;;10.10;;
11970;SDS011;6045;42.682;23.294;2023-12-22T04:30:20;14.20;;;9.07;;
11970;SDS011;6045;42.682;23.294;2023-12-22T04:32:47;16.93;;;9.57;;
11970;SDS011;6045;42.682;23.294;2023-12-22T04:35:14;15.37;;;9.27;;
11970;SDS011;6045;42.682;23.294;2023-12-22T04:37:41;15.73;;;9.17;;
11970;SDS011;6045;42.682;23.294;2023-12-22T04:40:09;18.43;;;9.37;;
11970;SDS011;6045;42.682;23.294;2023-12-22T04:42:37;16.83;;;8.93;;
11970;SDS011;6045;42.682;23.294;2023-12-22T04:45:04;18.13;;;10.23;;
11970;SDS011;6045;42.682;23.294;2023-12-22T04:47:31;16.87;;;10.03;;
11970;SDS011;6045;42.682;23.294;2023-12-22T04:49:58;17.47;;;9.70;;
11970;SDS011;6045;42.682;23.294;2023-12-22T04:52:25;14.63;;;9.33;;
11970;SDS011;6045;42.682;23.294;2023-12-22T04:54:53;22.80;;;10.43;;
11970;SDS011;6045;42.682;23.294;2023-12-22T04:57:22;20.13;;;10.60;;
11970;SDS011;6045;42.682;23.294;2023-12-22T04:59:49;16.30;;;9.57;;
11970;SDS011;6045;42.682;23.294;2023-12-22T05:02:16;17.33;;;9.50;;
11970;SDS011;6045;42.682;23.294;2023-12-22T05:04:43;18.97;;;9.27;;
11970;SDS011;6045;42.682;23.294;2023-12-22T05:07:10;14.83;;;8.80;;
11970;SDS011;6045;42.682;23.294;2023-12-22T05:09:37;15.17;;;9.00;;
11970;SDS011;6045;42.682;23.294;2023-12-22T05:12:04;15.53;;;9.20;;
11970;SDS011;6045;42.682;23.294;2023-12-22T05:14:33;14.93;;;9.20;;
11970;SDS011;6045;42.682;23.294;2023-12-22T05:17:00;19.53;;;10.23;;
11970;SDS011;6045;42.682;23.294;2023-12-22T05:19:27;20.77;;;9.07;;
11970;SDS011;6045;42.682;23.294;2023-12-22T05:21:54;16.33;;;8.50;;
11970;SDS011;6045;42.682;23.294;2023-12-22T05:24:22;19.97;;;10.17;;
11970;SDS011;6045;42.682;23.294;2023-12-22T05:26:49;20.50;;;10.53;;
11970;SDS011;6045;42.682;23.294;2023-12-22T05:29:15;20.57;;;8.63;;
11970;SDS011;6045;42.682;23.294;2023-12-22T05:31:44;6.63;;;3.97;;
11970;SDS011;6045;42.682;23.294;2023-12-22T05:34:11;11.77;;;6.40;;
11970;SDS011;6045;42.682;23.294;2023-12-22T05:36:38;10.03;;;6.17;;
11970;SDS011;6045;42.682;23.294;2023-12-22T05:39:04;14.97;;;8.73;;
11970;SDS011;6045;42.682;23.294;2023-12-22T05:41:33;17.27;;;10.17;;
11970;SDS011;6045;42.682;23.294;2023-12-22T05:44:01;15.70;;;9.57;;
11970;SDS011;6045;42.682;23.294;2023-12-22T05:46:28;20.73;;;11.30;;
11970;SDS011;6045;42.682;23.294;2023-12-22T05:48:56;13.73;;;9.17;;
11970;SDS011;6045;42.682;23.294;2023-12-22T05:51:24;17.27;;;8.93;;
11970;SDS011;6045;42.682;23.294;2023-12-22T05:53:51;15.27;;;8.93;;
11970;SDS011;6045;42.682;23.294;2023-12-22T05:56:19;19.73;;;10.60;;
11970;SDS011;6045;42.682;23.294;2023-12-22T05:58:47;24.43;;;10.50;;
11970;SDS011;6045;42.682;23.294;2023-12-22T06:01:15;15.93;;;10.40;;
11970;SDS011;6045;42.682;23.294;2023-12-22T06:03:43;17.37;;;9.63;;
11970;SDS011;6045;42.682;23.294;2023-12-22T06:06:11;15.73;;;9.67;;
11970;SDS011;6045;42.682;23.294;2023-12-22T06:08:39;19.43;;;9.50;;
11970;SDS011;6045;42.682;23.294;2023-12-22T06:11:06;18.77;;;10.53;;
11970;SDS011;6045;42.682;23.294;2023-12-22T06:13:33;16.30;;;10.27;;
11970;SDS011;6045;42.682;23.294;2023-12-22T06:16:00;19.13;;;10.40;;
11970;SDS011;6045;42.682;23.294;2023-12-22T06:18:27;18.63;;;10.63;;
11970;SDS011;6045;42.682;23.294;2023-12-22T06:20:54;16.50;;;9.60;;
11970;SDS011;6045;42.682;23.294;2023-12-22T06:23:22;18.43;;;9.57;;
11970;SDS011;6045;42.682;23.294;2023-12-22T06:25:49;15.83;;;9.03;;
11970;SDS011;6045;42.682;23.294;2023-12-22T06:28:16;18.03;;;9.57;;
11970;SDS011;6045;42.682;23.294;2023-12-22T06:30:43;22.07;;;11.10;;
11970;SDS011;6045;42.682;23.294;2023-12-22T06:33:12;15.93;;;9.30;;
11970;SDS011;6045;42.682;23.294;2023-12-22T06:35:39;17.40;;;9.87;;
11970;SDS011;6045;42.682;23.294;2023-12-22T06:38:07;19.03;;;10.03;;
11970;SDS011;6045;42.682;23.294;2023-12-22T06:40:37;16.10;;;9.43;;
11970;SDS011;6045;42.682;23.294;2023-12-22T06:43:04;18.17;;;9.00;;
11970;SDS011;6045;42.682;23.294;2023-12-22T06:45:31;15.40;;;9.30;;
11970;SDS011;6045;42.682;23.294;2023-12-22T06:47:58;13.93;;;8.90;;
11970;SDS011;6045;42.682;23.294;2023-12-22T06:50:25;17.50;;;8.73;;
11970;SDS011;6045;42.682;23.294;2023-12-22T06:52:52;16.47;;;8.07;;
11970;SDS011;6045;42.682;23.294;2023-12-22T06:55:19;16.20;;;9.07;;
11970;SDS011;6045;42.682;23.294;2023-12-22T06:57:47;14.83;;;8.53;;
11970;SDS011;6045;42.682;23.294;2023-12-22T07:00:15;17.37;;;9.97;;
11970;SDS011;6045;42.682;23.294;2023-12-22T07:02:42;16.43;;;10.03;;
11970;SDS011;6045;42.682;23.294;2023-12-22T07:08:04;18.07;;;10.20;;
11970;SDS011;6045;42.682;23.294;2023-12-22T07:10:32;18.27;;;10.13;;
11970;SDS011;6045;42.682;23.294;2023-12-22T07:13:00;18.50;;;9.30;;
11970;SDS011;6045;42.682;23.294;2023-12-22T07:15:27;53.20;;;24.50;;
11970;SDS011;6045;42.682;23.294;2023-12-22T07:17:54;20.37;;;11.23;;
11970;SDS011;6045;42.682;23.294;2023-12-22T07:20:21;20.33;;;10.37;;
11970;SDS011;6045;42.682;23.294;2023-12-22T07:22:48;16.73;;;10.10;;
11970;SDS011;6045;42.682;23.294;2023-12-22T07:25:16;15.77;;;10.03;;
11970;SDS011;6045;42.682;23.294;2023-12-22T07:27:44;19.43;;;9.63;;
11970;SDS011;6045;42.682;23.294;2023-12-22T07:30:13;21.37;;;11.17;;
11970;SDS011;6045;42.682;23.294;2023-12-22T07:32:43;18.93;;;9.70;;
11970;SDS011;6045;42.682;23.294;2023-12-22T07:35:12;15.27;;;9.20;;
11970;SDS011;6045;42.682;23.294;2023-12-22T07:37:39;15.57;;;9.67;;
11970;SDS011;6045;42.682;23.294;2023-12-22T07:40:07;18.67;;;10.37;;
11970;SDS011;6045;42.682;23.294;2023-12-22T07:42:35;19.23;;;9.40;;
11970;SDS011;6045;42.682;23.294;2023-12-22T07:45:03;14.80;;;9.03;;
11970;SDS011;6045;42.682;23.294;2023-12-22T07:47:32;17.97;;;10.17;;
11970;SDS011;6045;42.682;23.294;2023-12-22T07:49:59;18.17;;;9.97;;
11970;SDS011;6045;42.682;23.294;2023-12-22T07:52:26;13.53;;;8.90;;
11970;SDS011;6045;42.682;23.294;2023-12-22T07:54:53;15.90;;;9.70;;
11970;SDS011;6045;42.682;23.294;2023-12-22T07:57:22;15.77;;;9.20;;
11970;SDS011;6045;42.682;23.294;2023-12-22T07:59:49;17.63;;;10.07;;
11970;SDS011;6045;42.682;23.294;2023-12-22T08:02:17;17.40;;;10.00;;
11970;SDS011;6045;42.682;23.294;2023-12-22T08:04:46;19.03;;;9.40;;
11970;SDS011;6045;42.682;23.294;2023-12-22T08:07:13;16.00;;;10.37;;
11970;SDS011;6045;42.682;23.294;2023-12-22T08:09:40;16.30;;;9.63;;
11970;SDS011;6045;42.682;23.294;2023-12-22T08:12:07;14.43;;;9.20;;
11970;SDS011;6045;42.682;23.294;2023-12-22T08:14:34;20.50;;;10.13;;
11970;SDS011;6045;42.682;23.294;2023-12-22T08:17:01;16.00;;;9.30;;
11970;SDS011;6045;42.682;23.294;2023-12-22T08:19:28;15.70;;;10.10;;
11970;SDS011;6045;42.682;23.294;2023-12-22T08:21:57;13.30;;;9.17;;
11970;SDS011;6045;42.682;23.294;2023-12-22T08:24:24;18.13;;;10.37;;
11970;SDS011;6045;42.682;23.294;2023-12-22T08:26:51;19.40;;;11.33;;
11970;SDS011;6045;42.682;23.294;2023-12-22T08:29:18;21.47;;;10.90;;
11970;SDS011;6045;42.682;23.294;2023-12-22T08:31:44;14.30;;;10.10;;
11970;SDS011;6045;42.682;23.294;2023-12-22T08:34:11;21.90;;;10.20;;
11970;SDS011;6045;42.682;23.294;2023-12-22T08:36:38;16.03;;;9.87;;
11970;SDS011;6045;42.682;23.294;2023-12-22T08:39:07;16.43;;;10.53;;
11970;SDS011;6045;42.682;23.294;2023-12-22T08:41:33;19.73;;;10.50;;
11970;SDS011;6045;42.682;23.294;2023-12-22T08:44:02;20.37;;;12.20;;
11970;SDS011;6045;42.682;23.294;2023-12-22T08:46:29;20.40;;;10.67;;
11970;SDS011;6045;42.682;23.294;2023-12-22T08:48:56;17.13;;;11.23;;
11970;SDS011;6045;42.682;23.294;2023-12-22T08:51:24;17.30;;;11.37;;
11970;SDS011;6045;42.682;23.294;2023-12-22T08:53:51;20.23;;;10.93;;
11970;SDS011;6045;42.682;23.294;2023-12-22T08:56:21;17.00;;;11.20;;
11970;SDS011;6045;42.682;23.294;2023-12-22T08:58:48;17.77;;;11.70;;
11970;SDS011;6045;42.682;23.294;2023-12-22T09:01:17;23.40;;;11.87;;
11970;SDS011;6045;42.682;23.294;2023-12-22T09:03:45;20.43;;;12.23;;
11970;SDS011;6045;42.682;23.294;2023-12-22T09:06:13;21.43;;;12.07;;
11970;SDS011;6045;42.682;23.294;2023-12-22T09:08:41;16.70;;;11.10;;
11970;SDS011;6045;42.682;23.294;2023-12-22T09:11:08;21.07;;;12.60;;
11970;SDS011;6045;42.682;23.294;2023-12-22T09:13:39;19.30;;;11.23;;
11970;SDS011;6045;42.682;23.294;2023-12-22T09:16:07;21.33;;;12.67;;
11970;SDS011;6045;42.682;23.294;2023-12-22T09:18:34;21.53;;;12.53;;
11970;SDS011;6045;42.682;23.294;2023-12-22T09:21:01;21.90;;;12.53;;
11970;SDS011;6045;42.682;23.294;2023-12-22T09:23:29;23.60;;;12.83;;
11970;SDS011;6045;42.682;23.294;2023-12-22T09:25:56;19.50;;;12.57;;
11970;SDS011;6045;42.682;23.294;2023-12-22T09:28:23;23.20;;;12.87;;
11970;SDS011;6045;42.682;23.294;2023-12-22T09:30:52;22.63;;;12.70;;
11970;SDS011;6045;42.682;23.294;2023-12-22T09:33:19;24.30;;;12.80;;
11970;SDS011;6045;42.682;23.294;2023-12-22T09:35:45;23.73;;;11.87;;
11970;SDS011;6045;42.682;23.294;2023-12-22T09:38:13;24.83;;;13.73;;
11970;SDS011;6045;42.682;23.294;2023-12-22T09:40:43;20.33;;;12.50;;
11970;SDS011;6045;42.682;23.294;2023-12-22T09:43:10;27.10;;;12.40;;
11970;SDS011;6045;42.682;23.294;2023-12-22T09:45:43;22.27;;;12.43;;
11970;SDS011;6045;42.682;23.294;2023-12-22T09:48:13;18.27;;;10.93;;
11970;SDS011;6045;42.682;23.294;2023-12-22T09:50:45;20.37;;;10.90;;
11970;SDS011;6045;42.682;23.294;2023-12-22T09:53:13;22.17;;;12.50;;
11970;SDS011;6045;42.682;23.294;2023-12-22T09:55:42;21.50;;;12.37;;
11970;SDS011;6045;42.682;23.294;2023-12-22T09:58:12;19.47;;;12.17;;
11970;SDS011;6045;42.682;23.294;2023-12-22T10:00:40;18.77;;;12.33;;
11970;SDS011;6045;42.682;23.294;2023-12-22T10:03:09;20.37;;;11.50;;
11970;SDS011;6045;42.682;23.294;2023-12-22T10:05:38;22.20;;;13.23;;
11970;SDS011;6045;42.682;23.294;2023-12-22T10:08:06;26.30;;;13.03;;
11970;SDS011;6045;42.682;23.294;2023-12-22T10:10:35;20.77;;;12.63;;
11970;SDS011;6045;42.682;23.294;2023-12-22T10:13:07;23.93;;;12.73;;
11970;SDS011;6045;42.682;23.294;2023-12-22T10:15:39;15.77;;;11.50;;
11970;SDS011;6045;42.682;23.294;2023-12-22T10:18:07;22.50;;;12.60;;
11970;SDS011;6045;42.682;23.294;2023-12-22T10:20:35;22.47;;;13.67;;
11970;SDS011;6045;42.682;23.294;2023-12-22T10:23:07;19.70;;;11.80;;
11970;SDS011;6045;42.682;23.294;2023-12-22T10:25:34;19.97;;;13.50;;
11970;SDS011;6045;42.682;23.294;2023-12-22T10:28:00;27.23;;;13.13;;
11970;SDS011;6045;42.682;23.294;2023-12-22T10:30:28;22.00;;;13.87;;
11970;SDS011;6045;42.682;23.294;2023-12-22T10:32:55;21.37;;;13.97;;
11970;SDS011;6045;42.682;23.294;2023-12-22T10:35:22;21.23;;;12.37;;
11970;SDS011;6045;42.682;23.294;2023-12-22T10:37:49;19.13;;;12.63;;
11970;SDS011;6045;42.682;23.294;2023-12-22T10:40:20;23.40;;;13.33;;
11970;SDS011;6045;42.682;23.294;2023-12-22T10:42:48;18.50;;;12.73;;
11970;SDS011;6045;42.682;23.294;2023-12-22T10:45:15;15.87;;;10.40;;
11970;SDS011;6045;42.682;23.294;2023-12-22T10:47:44;18.07;;;10.90;;
11970;SDS011;6045;42.682;23.294;2023-12-22T10:50:15;14.60;;;8.93;;
11970;SDS011;6045;42.682;23.294;2023-12-22T10:52:48;12.47;;;9.77;;
11970;SDS011;6045;42.682;23.294;2023-12-22T10:55:15;12.23;;;8.50;;
11970;SDS011;6045;42.682;23.294;2023-12-22T10:57:45;13.53;;;8.37;;
11970;SDS011;6045;42.682;23.294;2023-12-22T11:00:13;12.40;;;8.13;;
11970;SDS011;6045;42.682;23.294;2023-12-22T11:02:42;17.33;;;8.60;;
11970;SDS011;6045;42.682;23.294;2023-12-22T11:05:13;13.60;;;7.87;;
11970;SDS011;6045;42.682;23.294;2023-12-22T11:07:45;16.17;;;9.73;;
11970;SDS011;6045;42.682;23.294;2023-12-22T11:10:16;8.93;;;5.47;;
11970;SDS011;6045;42.682;23.294;2023-12-22T11:12:48;4.20;;;3.23;;
11970;SDS011;6045;42.682;23.294;2023-12-22T11:15:15;2.10;;;1.60;;
11970;SDS011;6045;42.682;23.294;2023-12-22T11:17:44;2.47;;;1.37;;
11970;SDS011;6045;42.682;23.294;2023-12-22T11:20:16;3.50;;;2.30;;
11970;SDS011;6045;42.682;23.294;2023-12-22T11:22:44;1.43;;;1.33;;
11970;SDS011;6045;42.682;23.294;2023-12-22T11:25:12;3.53;;;1.83;;
11970;SDS011;6045;42.682;23.294;2023-12-22T11:27:41;2.67;;;1.83;;
11970;SDS011;6045;42.682;23.294;2023-12-22T11:30:11;1.90;;;1.50;;
11970;SDS011;6045;42.682;23.294;2023-12-22T11:32:40;4.47;;;2.10;;
11970;SDS011;6045;42.682;23.294;2023-12-22T11:35:08;2.37;;;1.87;;
11970;SDS011;6045;42.682;23.294;2023-12-22T11:37:36;2.07;;;1.50;;
11970;SDS011;6045;42.682;23.294;2023-12-22T11:40:05;1.63;;;1.53;;
11970;SDS011;6045;42.682;23.294;2023-12-22T11:42:35;2.27;;;1.50;;
11970;SDS011;6045;42.682;23.294;2023-12-22T11:45:10;1.83;;;1.50;;
11970;SDS011;6045;42.682;23.294;2023-12-22T11:47:40;3.53;;;2.47;;
11970;SDS011;6045;42.682;23.294;2023-12-22T11:50:08;1.50;;;1.40;;
11970;SDS011;6045;42.682;23.294;2023-12-22T11:52:36;3.80;;;1.80;;
11970;SDS011;6045;42.682;23.294;2023-12-22T11:55:04;2.53;;;1.60;;
11970;SDS011;6045;42.682;23.294;2023-12-22T11:57:33;1.80;;;1.10;;
11970;SDS011;6045;42.682;23.294;2023-12-22T12:00:01;1.63;;;1.10;;
11970;SDS011;6045;42.682;23.294;2023-12-22T12:02:34;1.20;;;1.10;;
11970;SDS011;6045;42.682;23.294;2023-12-22T12:05:03;1.73;;;1.20;;
11970;SDS011;6045;42.682;23.294;2023-12-22T12:07:40;1.17;;;1.00;;
11970;SDS011;6045;42.682;23.294;2023-12-22T12:10:10;3.33;;;1.20;;
11970;SDS011;6045;42.682;23.294;2023-12-22T12:12:38;1.63;;;1.20;;
11970;SDS011;6045;42.682;23.294;2023-12-22T12:15:08;4.07;;;1.40;;
11970;SDS011;6045;42.682;23.294;2023-12-22T12:17:39;0.87;;;0.87;;
11970;SDS011;6045;42.682;23.294;2023-12-22T12:20:08;1.40;;;0.93;;
11970;SDS011;6045;42.682;23.294;2023-12-22T12:22:36;1.93;;;1.20;;
11970;SDS011;6045;42.682;23.294;2023-12-22T12:25:06;1.47;;;1.00;;
11970;SDS011;6045;42.682;23.294;2023-12-22T12:27:35;3.03;;;1.50;;
11970;SDS011;6045;42.682;23.294;2023-12-22T12:30:07;2.20;;;1.70;;
11970;SDS011;6045;42.682;23.294;2023-12-22T12:32:39;2.43;;;1.80;;
11970;SDS011;6045;42.682;23.294;2023-12-22T12:35:10;6.37;;;3.70;;
11970;SDS011;6045;42.682;23.294;2023-12-22T12:37:38;1.30;;;1.10;;
11970;SDS011;6045;42.682;23.294;2023-12-22T12:40:06;2.13;;;1.17;;
11970;SDS011;6045;42.682;23.294;2023-12-22T12:42:35;2.70;;;1.10;;
11970;SDS011;6045;42.682;23.294;2023-12-22T12:45:04;3.53;;;1.53;;
11970;SDS011;6045;42.682;23.294;2023-12-22T12:47:32;1.10;;;0.80;;
11970;SDS011;6045;42.682;23.294;2023-12-22T12:50:00;1.40;;;1.30;;
11970;SDS011;6045;42.682;23.294;2023-12-22T12:52:29;2.20;;;1.30;;
11970;SDS011;6045;42.682;23.294;2023-12-22T12:54:56;2.43;;;1.70;;
11970;SDS011;6045;42.682;23.294;2023-12-22T12:57:25;2.30;;;1.50;;
11970;SDS011;6045;42.682;23.294;2023-12-22T12:59:52;4.67;;;1.90;;
11970;SDS011;6045;42.682;23.294;2023-12-22T13:02:19;1.30;;;1.20;;
11970;SDS011;6045;42.682;23.294;2023-12-22T13:04:47;1.43;;;1.33;;
11970;SDS011;6045;42.682;23.294;2023-12-22T13:07:25;1.90;;;1.30;;
11970;SDS011;6045;42.682;23.294;2023-12-22T13:09:52;5.50;;;1.57;;
11970;SDS011;6045;42.682;23.294;2023-12-22T13:12:22;1.60;;;1.50;;
11970;SDS011;6045;42.682;23.294;2023-12-22T13:14:49;3.37;;;1.80;;
11970;SDS011;6045;42.682;23.294;2023-12-22T13:17:16;2.00;;;1.37;;
11970;SDS011;6045;42.682;23.294;2023-12-22T13:19:43;2.23;;;1.43;;
11970;SDS011;6045;42.682;23.294;2023-12-22T13:22:10;3.07;;;1.90;;
11970;SDS011;6045;42.682;23.294;2023-12-22T13:24:40;1.30;;;1.20;;
11970;SDS011;6045;42.682;23.294;2023-12-22T13:27:07;2.77;;;1.70;;
11970;SDS011;6045;42.682;23.294;2023-12-22T13:29:43;2.30;;;1.90;;
11970;SDS011;6045;42.682;23.294;2023-12-22T13:32:17;2.50;;;2.03;;
11970;SDS011;6045;42.682;23.294;2023-12-22T13:34:48;1.70;;;1.60;;
11970;SDS011;6045;42.682;23.294;2023-12-22T13:37:20;3.47;;;1.67;;
11970;SDS011;6045;42.682;23.294;2023-12-22T13:39:48;2.23;;;1.57;;
11970;SDS011;6045;42.682;23.294;2023-12-22T13:42:16;3.60;;;1.90;;
11970;SDS011;6045;42.682;23.294;2023-12-22T13:44:45;3.57;;;1.70;;
11970;SDS011;6045;42.682;23.294;2023-12-22T13:47:14;2.57;;;1.87;;
11970;SDS011;6045;42.682;23.294;2023-12-22T13:49:42;1.40;;;1.30;;
11970;SDS011;6045;42.682;23.294;2023-12-22T13:52:24;4.23;;;1.90;;
11970;SDS011;6045;42.682;23.294;2023-12-22T13:54:53;3.93;;;2.10;;
11970;SDS011;6045;42.682;23.294;2023-12-22T13:57:22;2.83;;;1.70;;
11970;SDS011;6045;42.682;23.294;2023-12-22T13:59:49;2.93;;;2.17;;
11970;SDS011;6045;42.682;23.294;2023-12-22T14:02:19;3.27;;;1.53;;
11970;SDS011;6045;42.682;23.294;2023-12-22T14:04:47;4.33;;;1.50;;
11970;SDS011;6045;42.682;23.294;2023-12-22T14:07:14;1.70;;;1.50;;
11970;SDS011;6045;42.682;23.294;2023-12-22T14:09:41;2.10;;;1.43;;
11970;SDS011;6045;42.682;23.294;2023-12-22T14:12:09;2.10;;;1.40;;
11970;SDS011;6045;42.682;23.294;2023-12-22T14:14:36;1.57;;;1.47;;
11970;SDS011;6045;42.682;23.294;2023-12-22T14:17:03;1.63;;;1.40;;
11970;SDS011;6045;42.682;23.294;2023-12-22T14:19:30;1.30;;;1.20;;
11970;SDS011;6045;42.682;23.294;2023-12-22T14:21:57;3.53;;;1.67;;
11970;SDS011;6045;42.682;23.294;2023-12-22T14:24:24;1.90;;;1.70;;
11970;SDS011;6045;42.682;23.294;2023-12-22T14:26:52;1.87;;;1.50;;
11970;SDS011;6045;42.682;23.294;2023-12-22T14:29:21;2.07;;;1.20;;
11970;SDS011;6045;42.682;23.294;2023-12-22T14:31:49;1.80;;;1.57;;
11970;SDS011;6045;42.682;23.294;2023-12-22T14:34:18;2.10;;;1.73;;
11970;SDS011;6045;42.682;23.294;2023-12-22T14:36:48;1.77;;;1.40;;
11970;SDS011;6045;42.682;23.294;2023-12-22T14:39:15;2.77;;;1.70;;